sensor_id;sensor_type;location;lat;lon;timestamp;P1;durP1;ratioP1;P2;durP2;ratioP2
20824;SDS011;10573;50.936;6.978;2023-07-22T00:01:05;43.50;;;18.97;;
20824;SDS011;10573;50.936;6.978;2023-07-22T00:03:31;14.73;;;7.37;;
20824;SDS011;10573;50.936;6.978;2023-07-22T00:06:29;41.13;;;18.97;;
20824;SDS011;10573;50.936;6.978;2023-07-22T00:08:47;15.03;;;8.37;;
20824;SDS011;10573;50.936;6.978;2023-07-22T00:11:14;14.00;;;6.50;;
20824;SDS011;10573;50.936;6.978;2023-07-22T00:13:40;11.70;;;5.90;;
20824;SDS011;10573;50.936;6.978;2023-07-22T00:16:05;8.17;;;4.60;;
20824;SDS011;10573;50.936;6.978;2023-07-22T00:18:32;8.23;;;4.93;;
20824;SDS011;10573;50.936;6.978;2023-07-22T00:20:58;9.27;;;4.97;;
20824;SDS011;10573;50.936;6.978;2023-07-22T00:23:24;9.00;;;4.93;;
20824;SDS011;10573;50.936;6.978;2023-07-22T00:25:50;10.50;;;4.83;;
20824;SDS011;10573;50.936;6.978;2023-07-22T00:28:16;7.30;;;5.30;;
20824;SDS011;10573;50.936;6.978;2023-07-22T00:30:41;8.50;;;5.20;;
20824;SDS011;10573;50.936;6.978;2023-07-22T00:33:08;9.50;;;4.97;;
20824;SDS011;10573;50.936;6.978;2023-07-22T00:35:33;7.87;;;5.37;;
20824;SDS011;10573;50.936;6.978;2023-07-22T00:38:02;9.03;;;5.67;;
20824;SDS011;10573;50.936;6.978;2023-07-22T00:40:29;8.50;;;4.87;;
20824;SDS011;10573;50.936;6.978;2023-07-22T00:42:57;9.73;;;4.87;;
20824;SDS011;10573;50.936;6.978;2023-07-22T00:45:24;6.07;;;4.37;;
20824;SDS011;10573;50.936;6.978;2023-07-22T00:47:49;7.03;;;5.17;;
20824;SDS011;10573;50.936;6.978;2023-07-22T00:50:15;7.90;;;4.93;;
20824;SDS011;10573;50.936;6.978;2023-07-22T00:52:40;11.03;;;4.80;;
20824;SDS011;10573;50.936;6.978;2023-07-22T00:55:06;7.70;;;5.27;;
20824;SDS011;10573;50.936;6.978;2023-07-22T00:57:32;8.40;;;5.27;;
20824;SDS011;10573;50.936;6.978;2023-07-22T00:59:58;8.30;;;5.60;;
20824;SDS011;10573;50.936;6.978;2023-07-22T01:02:23;11.47;;;5.80;;
20824;SDS011;10573;50.936;6.978;2023-07-22T01:04:49;10.03;;;6.17;;
20824;SDS011;10573;50.936;6.978;2023-07-22T01:07:16;9.33;;;4.97;;
20824;SDS011;10573;50.936;6.978;2023-07-22T01:09:42;8.13;;;5.63;;
20824;SDS011;10573;50.936;6.978;2023-07-22T01:12:09;8.67;;;5.50;;
20824;SDS011;10573;50.936;6.978;2023-07-22T01:14:39;6.83;;;5.27;;
20824;SDS011;10573;50.936;6.978;2023-07-22T01:17:08;13.07;;;5.73;;
20824;SDS011;10573;50.936;6.978;2023-07-22T01:19:35;10.77;;;4.73;;
20824;SDS011;10573;50.936;6.978;2023-07-22T01:22:01;9.50;;;5.40;;
20824;SDS011;10573;50.936;6.978;2023-07-22T01:24:30;9.47;;;5.43;;
20824;SDS011;10573;50.936;6.978;2023-07-22T01:26:56;9.37;;;5.43;;
20824;SDS011;10573;50.936;6.978;2023-07-22T01:29:22;7.53;;;5.60;;
20824;SDS011;10573;50.936;6.978;2023-07-22T01:31:49;8.90;;;5.60;;
20824;SDS011;10573;50.936;6.978;2023-07-22T01:34:16;9.50;;;5.43;;
20824;SDS011;10573;50.936;6.978;2023-07-22T01:36:42;8.70;;;5.57;;
20824;SDS011;10573;50.936;6.978;2023-07-22T01:39:08;8.67;;;4.87;;
20824;SDS011;10573;50.936;6.978;2023-07-22T01:41:34;9.33;;;5.70;;
20824;SDS011;10573;50.936;6.978;2023-07-22T01:43:59;10.10;;;5.50;;
20824;SDS011;10573;50.936;6.978;2023-07-22T01:46:25;12.93;;;5.37;;
20824;SDS011;10573;50.936;6.978;2023-07-22T01:48:50;8.00;;;5.20;;
20824;SDS011;10573;50.936;6.978;2023-07-22T01:51:16;10.50;;;5.90;;
20824;SDS011;10573;50.936;6.978;2023-07-22T01:53:41;9.27;;;5.33;;
20824;SDS011;10573;50.936;6.978;2023-07-22T01:56:06;13.40;;;5.87;;
20824;SDS011;10573;50.936;6.978;2023-07-22T01:58:32;12.93;;;6.30;;
20824;SDS011;10573;50.936;6.978;2023-07-22T02:00:58;7.73;;;5.83;;
20824;SDS011;10573;50.936;6.978;2023-07-22T02:03:23;10.97;;;5.97;;
20824;SDS011;10573;50.936;6.978;2023-07-22T02:05:48;8.17;;;6.10;;
20824;SDS011;10573;50.936;6.978;2023-07-22T02:08:14;9.07;;;5.80;;
20824;SDS011;10573;50.936;6.978;2023-07-22T02:10:39;9.63;;;6.00;;
20824;SDS011;10573;50.936;6.978;2023-07-22T02:13:05;8.30;;;6.20;;
20824;SDS011;10573;50.936;6.978;2023-07-22T02:15:32;8.67;;;5.93;;
20824;SDS011;10573;50.936;6.978;2023-07-22T02:17:58;8.23;;;6.40;;
20824;SDS011;10573;50.936;6.978;2023-07-22T02:20:23;12.47;;;6.40;;
20824;SDS011;10573;50.936;6.978;2023-07-22T02:22:51;9.10;;;6.00;;
20824;SDS011;10573;50.936;6.978;2023-07-22T02:25:17;9.40;;;6.50;;
20824;SDS011;10573;50.936;6.978;2023-07-22T02:27:42;8.90;;;6.20;;
20824;SDS011;10573;50.936;6.978;2023-07-22T02:30:08;10.67;;;5.50;;
20824;SDS011;10573;50.936;6.978;2023-07-22T02:32:38;7.10;;;6.03;;
20824;SDS011;10573;50.936;6.978;2023-07-22T02:35:05;11.80;;;6.40;;
20824;SDS011;10573;50.936;6.978;2023-07-22T02:37:35;10.13;;;6.00;;
20824;SDS011;10573;50.936;6.978;2023-07-22T02:40:02;11.97;;;6.37;;
20824;SDS011;10573;50.936;6.978;2023-07-22T02:42:33;11.40;;;5.77;;
20824;SDS011;10573;50.936;6.978;2023-07-22T02:45:00;10.57;;;6.53;;
20824;SDS011;10573;50.936;6.978;2023-07-22T02:47:26;12.83;;;6.00;;
20824;SDS011;10573;50.936;6.978;2023-07-22T02:49:51;14.10;;;6.00;;
20824;SDS011;10573;50.936;6.978;2023-07-22T02:52:17;11.20;;;6.77;;
20824;SDS011;10573;50.936;6.978;2023-07-22T02:54:42;9.33;;;6.00;;
20824;SDS011;10573;50.936;6.978;2023-07-22T02:57:32;8.53;;;5.70;;
20824;SDS011;10573;50.936;6.978;2023-07-22T02:59:58;9.63;;;6.33;;
20824;SDS011;10573;50.936;6.978;2023-07-22T03:02:24;9.70;;;6.53;;
20824;SDS011;10573;50.936;6.978;2023-07-22T03:04:49;10.90;;;6.30;;
20824;SDS011;10573;50.936;6.978;2023-07-22T03:07:15;9.40;;;6.17;;
20824;SDS011;10573;50.936;6.978;2023-07-22T03:09:40;9.93;;;6.00;;
20824;SDS011;10573;50.936;6.978;2023-07-22T03:12:06;8.07;;;6.20;;
20824;SDS011;10573;50.936;6.978;2023-07-22T03:14:31;7.83;;;5.93;;
20824;SDS011;10573;50.936;6.978;2023-07-22T03:17:01;10.30;;;6.23;;
20824;SDS011;10573;50.936;6.978;2023-07-22T03:19:29;9.37;;;5.67;;
20824;SDS011;10573;50.936;6.978;2023-07-22T03:21:54;11.63;;;6.27;;
20824;SDS011;10573;50.936;6.978;2023-07-22T03:24:20;8.07;;;5.63;;
20824;SDS011;10573;50.936;6.978;2023-07-22T03:26:45;9.13;;;6.03;;
20824;SDS011;10573;50.936;6.978;2023-07-22T03:29:11;9.13;;;5.57;;
20824;SDS011;10573;50.936;6.978;2023-07-22T03:31:36;11.30;;;5.90;;
20824;SDS011;10573;50.936;6.978;2023-07-22T03:34:01;8.57;;;6.10;;
20824;SDS011;10573;50.936;6.978;2023-07-22T03:36:27;7.77;;;5.93;;
20824;SDS011;10573;50.936;6.978;2023-07-22T03:38:52;7.63;;;5.77;;
20824;SDS011;10573;50.936;6.978;2023-07-22T03:41:17;6.57;;;5.47;;
20824;SDS011;10573;50.936;6.978;2023-07-22T03:43:43;7.50;;;6.07;;
20824;SDS011;10573;50.936;6.978;2023-07-22T03:46:08;9.17;;;6.07;;
20824;SDS011;10573;50.936;6.978;2023-07-22T03:48:34;8.87;;;5.73;;
20824;SDS011;10573;50.936;6.978;2023-07-22T03:50:59;7.13;;;5.13;;
20824;SDS011;10573;50.936;6.978;2023-07-22T03:53:25;6.57;;;5.80;;
20824;SDS011;10573;50.936;6.978;2023-07-22T03:55:50;8.30;;;6.23;;
20824;SDS011;10573;50.936;6.978;2023-07-22T03:58:16;6.10;;;5.50;;
20824;SDS011;10573;50.936;6.978;2023-07-22T04:00:41;9.50;;;5.80;;
20824;SDS011;10573;50.936;6.978;2023-07-22T04:03:07;9.40;;;5.73;;
20824;SDS011;10573;50.936;6.978;2023-07-22T04:05:32;13.33;;;6.17;;
20824;SDS011;10573;50.936;6.978;2023-07-22T04:07:58;7.60;;;5.97;;
20824;SDS011;10573;50.936;6.978;2023-07-22T04:10:23;10.07;;;6.00;;
20824;SDS011;10573;50.936;6.978;2023-07-22T04:12:48;8.30;;;5.53;;
20824;SDS011;10573;50.936;6.978;2023-07-22T04:15:14;8.87;;;5.73;;
20824;SDS011;10573;50.936;6.978;2023-07-22T04:17:40;9.20;;;5.07;;
20824;SDS011;10573;50.936;6.978;2023-07-22T04:20:06;6.80;;;5.83;;
20824;SDS011;10573;50.936;6.978;2023-07-22T04:22:33;10.70;;;5.90;;
20824;SDS011;10573;50.936;6.978;2023-07-22T04:24:59;7.73;;;5.50;;
20824;SDS011;10573;50.936;6.978;2023-07-22T04:27:26;8.17;;;5.67;;
20824;SDS011;10573;50.936;6.978;2023-07-22T04:29:52;6.63;;;5.20;;
20824;SDS011;10573;50.936;6.978;2023-07-22T04:32:18;8.30;;;5.50;;
20824;SDS011;10573;50.936;6.978;2023-07-22T04:34:43;8.10;;;6.00;;
20824;SDS011;10573;50.936;6.978;2023-07-22T04:37:09;8.77;;;5.27;;
20824;SDS011;10573;50.936;6.978;2023-07-22T04:39:34;10.23;;;5.90;;
20824;SDS011;10573;50.936;6.978;2023-07-22T04:42:00;9.23;;;5.13;;
20824;SDS011;10573;50.936;6.978;2023-07-22T04:44:25;10.63;;;6.03;;
20824;SDS011;10573;50.936;6.978;2023-07-22T04:46:52;8.90;;;5.90;;
20824;SDS011;10573;50.936;6.978;2023-07-22T04:49:17;9.23;;;6.10;;
20824;SDS011;10573;50.936;6.978;2023-07-22T04:51:44;7.80;;;5.80;;
20824;SDS011;10573;50.936;6.978;2023-07-22T04:54:10;7.57;;;5.50;;
20824;SDS011;10573;50.936;6.978;2023-07-22T04:56:36;9.20;;;5.40;;
20824;SDS011;10573;50.936;6.978;2023-07-22T04:59:03;7.90;;;5.80;;
20824;SDS011;10573;50.936;6.978;2023-07-22T05:01:28;13.13;;;5.60;;
20824;SDS011;10573;50.936;6.978;2023-07-22T05:03:54;6.83;;;5.70;;
20824;SDS011;10573;50.936;6.978;2023-07-22T05:06:20;15.27;;;6.37;;
20824;SDS011;10573;50.936;6.978;2023-07-22T05:08:46;12.13;;;6.17;;
20824;SDS011;10573;50.936;6.978;2023-07-22T05:11:11;12.23;;;6.43;;
20824;SDS011;10573;50.936;6.978;2023-07-22T05:13:37;9.07;;;6.00;;
20824;SDS011;10573;50.936;6.978;2023-07-22T05:16:02;9.70;;;5.80;;
20824;SDS011;10573;50.936;6.978;2023-07-22T05:18:28;9.53;;;6.30;;
20824;SDS011;10573;50.936;6.978;2023-07-22T05:20:53;8.67;;;5.80;;
20824;SDS011;10573;50.936;6.978;2023-07-22T05:23:18;9.17;;;6.40;;
20824;SDS011;10573;50.936;6.978;2023-07-22T05:25:50;10.20;;;6.57;;
20824;SDS011;10573;50.936;6.978;2023-07-22T05:28:16;7.97;;;5.82;;
20824;SDS011;10573;50.936;6.978;2023-07-22T05:30:41;11.57;;;6.40;;
20824;SDS011;10573;50.936;6.978;2023-07-22T05:33:07;12.83;;;6.57;;
20824;SDS011;10573;50.936;6.978;2023-07-22T05:35:32;9.47;;;6.13;;
20824;SDS011;10573;50.936;6.978;2023-07-22T05:37:59;9.27;;;6.93;;
20824;SDS011;10573;50.936;6.978;2023-07-22T05:40:25;8.27;;;6.90;;
20824;SDS011;10573;50.936;6.978;2023-07-22T05:42:51;10.48;;;6.60;;
20824;SDS011;10573;50.936;6.978;2023-07-22T05:45:16;10.13;;;6.80;;
20824;SDS011;10573;50.936;6.978;2023-07-22T05:47:42;12.05;;;6.40;;
20824;SDS011;10573;50.936;6.978;2023-07-22T05:50:07;9.27;;;6.47;;
20824;SDS011;10573;50.936;6.978;2023-07-22T05:52:33;9.15;;;6.72;;
20824;SDS011;10573;50.936;6.978;2023-07-22T05:54:58;7.53;;;6.20;;
20824;SDS011;10573;50.936;6.978;2023-07-22T05:57:23;9.57;;;6.03;;
20824;SDS011;10573;50.936;6.978;2023-07-22T05:59:49;10.00;;;6.73;;
20824;SDS011;10573;50.936;6.978;2023-07-22T06:02:16;9.73;;;6.40;;
20824;SDS011;10573;50.936;6.978;2023-07-22T06:04:43;9.43;;;6.60;;
20824;SDS011;10573;50.936;6.978;2023-07-22T06:07:09;10.03;;;6.33;;
20824;SDS011;10573;50.936;6.978;2023-07-22T06:09:34;9.40;;;6.65;;
20824;SDS011;10573;50.936;6.978;2023-07-22T06:12:00;11.52;;;6.65;;
20824;SDS011;10573;50.936;6.978;2023-07-22T06:14:26;11.35;;;6.45;;
20824;SDS011;10573;50.936;6.978;2023-07-22T06:16:52;9.97;;;6.47;;
20824;SDS011;10573;50.936;6.978;2023-07-22T06:19:18;10.63;;;6.77;;
20824;SDS011;10573;50.936;6.978;2023-07-22T06:21:43;10.20;;;6.40;;
20824;SDS011;10573;50.936;6.978;2023-07-22T06:24:09;9.50;;;6.70;;
20824;SDS011;10573;50.936;6.978;2023-07-22T06:26:35;9.90;;;6.50;;
20824;SDS011;10573;50.936;6.978;2023-07-22T06:29:01;11.45;;;6.38;;
20824;SDS011;10573;50.936;6.978;2023-07-22T06:31:27;9.05;;;6.53;;
20824;SDS011;10573;50.936;6.978;2023-07-22T06:33:56;9.98;;;6.03;;
20824;SDS011;10573;50.936;6.978;2023-07-22T06:36:22;7.38;;;6.13;;
20824;SDS011;10573;50.936;6.978;2023-07-22T06:39:06;8.68;;;6.28;;
20824;SDS011;10573;50.936;6.978;2023-07-22T06:41:52;9.90;;;6.78;;
20824;SDS011;10573;50.936;6.978;2023-07-22T06:44:38;10.70;;;6.50;;
20824;SDS011;10573;50.936;6.978;2023-07-22T06:47:23;9.07;;;6.80;;
20824;SDS011;10573;50.936;6.978;2023-07-22T06:50:09;11.68;;;6.47;;
20824;SDS011;10573;50.936;6.978;2023-07-22T06:52:55;9.32;;;6.25;;
20824;SDS011;10573;50.936;6.978;2023-07-22T06:55:53;9.05;;;6.30;;
20824;SDS011;10573;50.936;6.978;2023-07-22T06:58:38;9.93;;;6.70;;
20824;SDS011;10573;50.936;6.978;2023-07-22T07:01:24;8.55;;;6.22;;
20824;SDS011;10573;50.936;6.978;2023-07-22T07:04:10;9.27;;;6.40;;
20824;SDS011;10573;50.936;6.978;2023-07-22T07:06:56;10.50;;;6.70;;
20824;SDS011;10573;50.936;6.978;2023-07-22T07:09:41;9.13;;;6.45;;
20824;SDS011;10573;50.936;6.978;2023-07-22T07:12:28;10.25;;;6.68;;
20824;SDS011;10573;50.936;6.978;2023-07-22T07:15:13;12.25;;;6.57;;
20824;SDS011;10573;50.936;6.978;2023-07-22T07:17:59;8.98;;;6.50;;
20824;SDS011;10573;50.936;6.978;2023-07-22T07:20:45;8.65;;;6.38;;
20824;SDS011;10573;50.936;6.978;2023-07-22T07:23:31;8.13;;;5.85;;
20824;SDS011;10573;50.936;6.978;2023-07-22T07:26:16;7.50;;;5.50;;
20824;SDS011;10573;50.936;6.978;2023-07-22T07:29:03;9.70;;;6.30;;
20824;SDS011;10573;50.936;6.978;2023-07-22T07:31:48;11.88;;;5.68;;
20824;SDS011;10573;50.936;6.978;2023-07-22T07:34:34;10.43;;;6.30;;
20824;SDS011;10573;50.936;6.978;2023-07-22T07:37:20;7.18;;;5.65;;
20824;SDS011;10573;50.936;6.978;2023-07-22T07:40:07;7.60;;;5.72;;
20824;SDS011;10573;50.936;6.978;2023-07-22T07:42:54;8.45;;;6.10;;
20824;SDS011;10573;50.936;6.978;2023-07-22T07:45:40;9.90;;;6.10;;
20824;SDS011;10573;50.936;6.978;2023-07-22T07:48:26;7.50;;;6.00;;
20824;SDS011;10573;50.936;6.978;2023-07-22T07:51:15;8.40;;;5.82;;
20824;SDS011;10573;50.936;6.978;2023-07-22T07:54:01;10.27;;;6.22;;
20824;SDS011;10573;50.936;6.978;2023-07-22T07:56:49;12.55;;;6.15;;
20824;SDS011;10573;50.936;6.978;2023-07-22T07:59:35;11.25;;;6.05;;
20824;SDS011;10573;50.936;6.978;2023-07-22T08:02:21;7.90;;;5.80;;
20824;SDS011;10573;50.936;6.978;2023-07-22T08:05:07;10.30;;;6.57;;
20824;SDS011;10573;50.936;6.978;2023-07-22T08:07:53;11.30;;;6.60;;
20824;SDS011;10573;50.936;6.978;2023-07-22T08:10:39;11.68;;;6.60;;
20824;SDS011;10573;50.936;6.978;2023-07-22T08:13:26;9.82;;;6.32;;
20824;SDS011;10573;50.936;6.978;2023-07-22T08:16:12;7.40;;;5.75;;
20824;SDS011;10573;50.936;6.978;2023-07-22T08:18:58;8.43;;;6.13;;
20824;SDS011;10573;50.936;6.978;2023-07-22T08:21:44;11.48;;;6.40;;
20824;SDS011;10573;50.936;6.978;2023-07-22T08:24:30;9.93;;;6.50;;
20824;SDS011;10573;50.936;6.978;2023-07-22T08:27:16;10.02;;;6.53;;
20824;SDS011;10573;50.936;6.978;2023-07-22T08:30:01;7.90;;;6.10;;
20824;SDS011;10573;50.936;6.978;2023-07-22T08:32:47;9.77;;;6.07;;
20824;SDS011;10573;50.936;6.978;2023-07-22T08:35:36;7.50;;;5.83;;
20824;SDS011;10573;50.936;6.978;2023-07-22T08:38:22;7.40;;;5.38;;
20824;SDS011;10573;50.936;6.978;2023-07-22T08:41:07;8.10;;;5.55;;
20824;SDS011;10573;50.936;6.978;2023-07-22T08:43:54;7.90;;;5.22;;
20824;SDS011;10573;50.936;6.978;2023-07-22T08:46:41;9.20;;;5.45;;
20824;SDS011;10573;50.936;6.978;2023-07-22T08:49:28;6.82;;;5.35;;
20824;SDS011;10573;50.936;6.978;2023-07-22T08:52:14;5.90;;;4.78;;
20824;SDS011;10573;50.936;6.978;2023-07-22T08:55:01;9.57;;;5.15;;
20824;SDS011;10573;50.936;6.978;2023-07-22T08:57:47;6.72;;;5.05;;
20824;SDS011;10573;50.936;6.978;2023-07-22T09:00:34;8.75;;;4.80;;
20824;SDS011;10573;50.936;6.978;2023-07-22T09:03:20;8.15;;;4.68;;
20824;SDS011;10573;50.936;6.978;2023-07-22T09:06:06;5.00;;;4.13;;
20824;SDS011;10573;50.936;6.978;2023-07-22T09:08:51;6.80;;;4.47;;
20824;SDS011;10573;50.936;6.978;2023-07-22T09:11:38;6.30;;;4.45;;
20824;SDS011;10573;50.936;6.978;2023-07-22T09:14:24;7.13;;;4.30;;
20824;SDS011;10573;50.936;6.978;2023-07-22T09:17:11;6.47;;;4.30;;
20824;SDS011;10573;50.936;6.978;2023-07-22T09:19:56;5.68;;;3.80;;
20824;SDS011;10573;50.936;6.978;2023-07-22T09:22:45;7.07;;;4.10;;
20824;SDS011;10573;50.936;6.978;2023-07-22T09:25:32;4.80;;;3.78;;
20824;SDS011;10573;50.936;6.978;2023-07-22T09:28:18;5.57;;;4.03;;
20824;SDS011;10573;50.936;6.978;2023-07-22T09:31:04;4.05;;;3.47;;
20824;SDS011;10573;50.936;6.978;2023-07-22T09:33:50;4.65;;;3.42;;
20824;SDS011;10573;50.936;6.978;2023-07-22T09:36:52;5.40;;;3.40;;
20824;SDS011;10573;50.936;6.978;2023-07-22T09:39:41;3.65;;;3.15;;
20824;SDS011;10573;50.936;6.978;2023-07-22T09:42:32;5.32;;;3.33;;
20824;SDS011;10573;50.936;6.978;2023-07-22T09:45:18;6.77;;;3.30;;
20824;SDS011;10573;50.936;6.978;2023-07-22T09:48:06;6.22;;;3.58;;
20824;SDS011;10573;50.936;6.978;2023-07-22T09:50:57;4.95;;;3.35;;
20824;SDS011;10573;50.936;6.978;2023-07-22T09:53:44;7.28;;;3.63;;
20824;SDS011;10573;50.936;6.978;2023-07-22T09:56:31;4.97;;;2.88;;
20824;SDS011;10573;50.936;6.978;2023-07-22T09:59:18;4.65;;;3.30;;
20824;SDS011;10573;50.936;6.978;2023-07-22T10:02:05;3.55;;;3.13;;
20824;SDS011;10573;50.936;6.978;2023-07-22T10:04:52;4.70;;;2.97;;
20824;SDS011;10573;50.936;6.978;2023-07-22T10:07:43;6.10;;;3.30;;
20824;SDS011;10573;50.936;6.978;2023-07-22T10:10:34;4.32;;;2.72;;
20824;SDS011;10573;50.936;6.978;2023-07-22T10:13:22;3.80;;;2.47;;
20824;SDS011;10573;50.936;6.978;2023-07-22T10:16:09;5.00;;;2.08;;
20824;SDS011;10573;50.936;6.978;2023-07-22T10:18:56;3.75;;;2.15;;
20824;SDS011;10573;50.936;6.978;2023-07-22T10:21:44;3.47;;;2.08;;
20824;SDS011;10573;50.936;6.978;2023-07-22T10:24:30;6.60;;;2.20;;
20824;SDS011;10573;50.936;6.978;2023-07-22T10:27:16;2.95;;;2.50;;
20824;SDS011;10573;50.936;6.978;2023-07-22T10:30:03;2.13;;;1.92;;
20824;SDS011;10573;50.936;6.978;2023-07-22T10:32:50;2.67;;;2.13;;
20824;SDS011;10573;50.936;6.978;2023-07-22T10:35:41;2.50;;;2.13;;
20824;SDS011;10573;50.936;6.978;2023-07-22T10:38:30;2.70;;;2.10;;
20824;SDS011;10573;50.936;6.978;2023-07-22T10:41:17;3.20;;;2.15;;
20824;SDS011;10573;50.936;6.978;2023-07-22T10:44:02;4.75;;;2.08;;
20824;SDS011;10573;50.936;6.978;2023-07-22T10:46:57;1.98;;;1.80;;
20824;SDS011;10573;50.936;6.978;2023-07-22T10:49:45;3.72;;;2.22;;
20824;SDS011;10573;50.936;6.978;2023-07-22T10:52:40;3.33;;;2.33;;
20824;SDS011;10573;50.936;6.978;2023-07-22T10:55:27;4.90;;;2.40;;
20824;SDS011;10573;50.936;6.978;2023-07-22T10:58:13;3.58;;;1.92;;
20824;SDS011;10573;50.936;6.978;2023-07-22T11:07:06;2.45;;;1.90;;
20824;SDS011;10573;50.936;6.978;2023-07-22T11:09:53;2.50;;;1.83;;
20824;SDS011;10573;50.936;6.978;2023-07-22T11:12:39;5.18;;;2.22;;
20824;SDS011;10573;50.936;6.978;2023-07-22T11:15:29;2.08;;;1.70;;
20824;SDS011;10573;50.936;6.978;2023-07-22T11:18:14;5.47;;;2.05;;
20824;SDS011;10573;50.936;6.978;2023-07-22T11:21:00;3.10;;;2.37;;
20824;SDS011;10573;50.936;6.978;2023-07-22T11:23:46;6.15;;;2.10;;
20824;SDS011;10573;50.936;6.978;2023-07-22T11:26:32;2.70;;;1.93;;
20824;SDS011;10573;50.936;6.978;2023-07-22T11:29:18;4.53;;;2.05;;
20824;SDS011;10573;50.936;6.978;2023-07-22T11:32:05;2.55;;;2.10;;
20824;SDS011;10573;50.936;6.978;2023-07-22T11:34:51;3.40;;;2.10;;
20824;SDS011;10573;50.936;6.978;2023-07-22T11:37:38;2.92;;;2.20;;
20824;SDS011;10573;50.936;6.978;2023-07-22T11:40:32;2.65;;;2.17;;
20824;SDS011;10573;50.936;6.978;2023-07-22T11:43:18;5.73;;;2.20;;
20824;SDS011;10573;50.936;6.978;2023-07-22T11:46:06;2.92;;;2.13;;
20824;SDS011;10573;50.936;6.978;2023-07-22T11:48:52;2.55;;;2.10;;
20824;SDS011;10573;50.936;6.978;2023-07-22T11:51:42;3.95;;;2.10;;
20824;SDS011;10573;50.936;6.978;2023-07-22T11:54:28;4.10;;;2.03;;
20824;SDS011;10573;50.936;6.978;2023-07-22T11:57:18;3.00;;;1.90;;
20824;SDS011;10573;50.936;6.978;2023-07-22T12:00:07;4.65;;;2.03;;
20824;SDS011;10573;50.936;6.978;2023-07-22T12:02:54;2.45;;;2.00;;
20824;SDS011;10573;50.936;6.978;2023-07-22T12:05:42;2.53;;;2.05;;
20824;SDS011;10573;50.936;6.978;2023-07-22T12:08:28;3.65;;;2.13;;
20824;SDS011;10573;50.936;6.978;2023-07-22T12:11:21;2.97;;;2.40;;
20824;SDS011;10573;50.936;6.978;2023-07-22T12:14:11;4.72;;;2.10;;
20824;SDS011;10573;50.936;6.978;2023-07-22T12:16:58;2.38;;;1.83;;
20824;SDS011;10573;50.936;6.978;2023-07-22T12:19:51;2.15;;;1.90;;
20824;SDS011;10573;50.936;6.978;2023-07-22T12:22:38;2.90;;;1.80;;
20824;SDS011;10573;50.936;6.978;2023-07-22T12:25:24;2.40;;;1.83;;
20824;SDS011;10573;50.936;6.978;2023-07-22T12:28:09;2.50;;;1.80;;
20824;SDS011;10573;50.936;6.978;2023-07-22T12:30:56;2.38;;;1.90;;
20824;SDS011;10573;50.936;6.978;2023-07-22T12:33:44;2.10;;;1.52;;
20824;SDS011;10573;50.936;6.978;2023-07-22T12:36:30;1.80;;;1.60;;
20824;SDS011;10573;50.936;6.978;2023-07-22T12:39:16;2.25;;;1.92;;
20824;SDS011;10573;50.936;6.978;2023-07-22T12:42:02;3.10;;;1.70;;
20824;SDS011;10573;50.936;6.978;2023-07-22T12:44:48;2.40;;;1.80;;
20824;SDS011;10573;50.936;6.978;2023-07-22T12:47:34;1.95;;;1.63;;
20824;SDS011;10573;50.936;6.978;2023-07-22T12:50:20;2.20;;;1.83;;
20824;SDS011;10573;50.936;6.978;2023-07-22T12:53:05;1.92;;;1.73;;
20824;SDS011;10573;50.936;6.978;2023-07-22T12:55:51;2.20;;;1.75;;
20824;SDS011;10573;50.936;6.978;2023-07-22T12:58:37;1.60;;;1.50;;
20824;SDS011;10573;50.936;6.978;2023-07-22T13:01:23;1.50;;;1.40;;
20824;SDS011;10573;50.936;6.978;2023-07-22T13:04:08;1.98;;;1.60;;
20824;SDS011;10573;50.936;6.978;2023-07-22T13:06:54;1.60;;;1.50;;
20824;SDS011;10573;50.936;6.978;2023-07-22T13:09:42;1.85;;;1.50;;
20824;SDS011;10573;50.936;6.978;2023-07-22T13:12:28;1.70;;;1.60;;
20824;SDS011;10573;50.936;6.978;2023-07-22T13:15:14;2.40;;;1.73;;
20824;SDS011;10573;50.936;6.978;2023-07-22T13:18:00;1.87;;;1.53;;
20824;SDS011;10573;50.936;6.978;2023-07-22T13:20:46;2.40;;;1.88;;
20824;SDS011;10573;50.936;6.978;2023-07-22T13:23:31;2.50;;;1.50;;
20824;SDS011;10573;50.936;6.978;2023-07-22T13:26:18;3.92;;;2.70;;
20824;SDS011;10573;50.936;6.978;2023-07-22T13:29:04;2.42;;;1.70;;
20824;SDS011;10573;50.936;6.978;2023-07-22T13:31:49;2.20;;;1.88;;
20824;SDS011;10573;50.936;6.978;2023-07-22T13:34:35;4.25;;;1.95;;
20824;SDS011;10573;50.936;6.978;2023-07-22T13:37:21;4.07;;;1.83;;
20824;SDS011;10573;50.936;6.978;2023-07-22T13:40:06;2.13;;;1.80;;
20824;SDS011;10573;50.936;6.978;2023-07-22T13:42:55;3.97;;;2.00;;
20824;SDS011;10573;50.936;6.978;2023-07-22T13:45:41;5.72;;;2.28;;
20824;SDS011;10573;50.936;6.978;2023-07-22T13:48:27;3.00;;;2.10;;
20824;SDS011;10573;50.936;6.978;2023-07-22T13:51:13;2.13;;;1.67;;
20824;SDS011;10573;50.936;6.978;2023-07-22T13:53:59;2.50;;;2.00;;
20824;SDS011;10573;50.936;6.978;2023-07-22T13:56:44;3.27;;;2.00;;
20824;SDS011;10573;50.936;6.978;2023-07-22T13:59:32;2.05;;;1.85;;
20824;SDS011;10573;50.936;6.978;2023-07-22T14:02:17;2.60;;;1.90;;
20824;SDS011;10573;50.936;6.978;2023-07-22T14:05:04;3.38;;;1.98;;
20824;SDS011;10573;50.936;6.978;2023-07-22T14:07:50;4.38;;;2.10;;
20824;SDS011;10573;50.936;6.978;2023-07-22T14:10:36;2.58;;;2.05;;
20824;SDS011;10573;50.936;6.978;2023-07-22T14:13:22;2.30;;;1.95;;
20824;SDS011;10573;50.936;6.978;2023-07-22T14:15:47;2.60;;;1.85;;
20824;SDS011;10573;50.936;6.978;2023-07-22T14:18:12;2.10;;;1.90;;
20824;SDS011;10573;50.936;6.978;2023-07-22T14:20:42;4.50;;;2.07;;
20824;SDS011;10573;50.936;6.978;2023-07-22T14:23:08;3.65;;;1.90;;
20824;SDS011;10573;50.936;6.978;2023-07-22T14:25:33;2.50;;;2.17;;
20824;SDS011;10573;50.936;6.978;2023-07-22T14:27:58;4.10;;;2.30;;
20824;SDS011;10573;50.936;6.978;2023-07-22T14:30:24;2.97;;;2.30;;
20824;SDS011;10573;50.936;6.978;2023-07-22T14:32:49;2.70;;;2.17;;
20824;SDS011;10573;50.936;6.978;2023-07-22T14:35:15;2.33;;;2.10;;
20824;SDS011;10573;50.936;6.978;2023-07-22T14:37:40;2.30;;;2.10;;
20824;SDS011;10573;50.936;6.978;2023-07-22T14:40:05;2.60;;;2.30;;
20824;SDS011;10573;50.936;6.978;2023-07-22T14:42:33;4.20;;;2.67;;
20824;SDS011;10573;50.936;6.978;2023-07-22T14:44:59;2.30;;;2.10;;
20824;SDS011;10573;50.936;6.978;2023-07-22T14:47:24;2.67;;;2.30;;
20824;SDS011;10573;50.936;6.978;2023-07-22T14:49:51;4.45;;;2.53;;
20824;SDS011;10573;50.936;6.978;2023-07-22T14:52:16;3.33;;;2.70;;
20824;SDS011;10573;50.936;6.978;2023-07-22T14:54:42;4.80;;;2.83;;
20824;SDS011;10573;50.936;6.978;2023-07-22T14:57:08;3.10;;;2.22;;
20824;SDS011;10573;50.936;6.978;2023-07-22T14:59:33;2.50;;;2.20;;
20824;SDS011;10573;50.936;6.978;2023-07-22T15:01:59;3.50;;;2.30;;
20824;SDS011;10573;50.936;6.978;2023-07-22T15:04:24;3.27;;;2.40;;
20824;SDS011;10573;50.936;6.978;2023-07-22T15:06:49;3.73;;;2.53;;
20824;SDS011;10573;50.936;6.978;2023-07-22T15:09:15;3.00;;;2.57;;
20824;SDS011;10573;50.936;6.978;2023-07-22T15:11:40;4.63;;;2.70;;
20824;SDS011;10573;50.936;6.978;2023-07-22T15:14:06;6.83;;;3.10;;
20824;SDS011;10573;50.936;6.978;2023-07-22T15:16:31;4.13;;;2.47;;
20824;SDS011;10573;50.936;6.978;2023-07-22T15:18:57;4.18;;;2.70;;
20824;SDS011;10573;50.936;6.978;2023-07-22T15:21:23;3.37;;;2.70;;
20824;SDS011;10573;50.936;6.978;2023-07-22T15:23:48;4.67;;;2.60;;
20824;SDS011;10573;50.936;6.978;2023-07-22T15:26:14;4.10;;;2.50;;
20824;SDS011;10573;50.936;6.978;2023-07-22T15:28:39;3.27;;;2.30;;
20824;SDS011;10573;50.936;6.978;2023-07-22T15:31:07;4.35;;;2.83;;
20824;SDS011;10573;50.936;6.978;2023-07-22T15:33:36;4.10;;;2.63;;
20824;SDS011;10573;50.936;6.978;2023-07-22T15:36:01;4.60;;;2.70;;
20824;SDS011;10573;50.936;6.978;2023-07-22T15:38:27;3.13;;;2.50;;
20824;SDS011;10573;50.936;6.978;2023-07-22T15:40:53;2.97;;;2.50;;